Time;durP1;ratioP1;P1;durP2;ratioP2;P2;SDS_P1;SDS_P2;PMS_P1;PMS_P2;Temp;Humidity;BMP_temperature;BMP_pressure;BME280_temperature;BME280_humidity;BME280_pressure;Samples;Min_cycle;Max_cycle;Signal;HPM_P1;HPM_P2
2023/07/01 00:02:18;;;;;;;4.27;3.87;;;;;;;;;;5051415;28;20454;-47
2023/07/01 00:04:44;;;;;;;4.53;3.27;;;;;;;;;;5052094;28;20388;-50
2023/07/01 00:07:10;;;;;;;4.57;3.23;;;;;;;;;;5051928;28;20440;-48
2023/07/01 00:09:36;;;;;;;9.53;5.47;;;;;;;;;;5051789;28;20440;-49
2023/07/01 00:12:02;;;;;;;5.07;4.00;;;;;;;;;;5052095;28;20862;-48
2023/07/01 00:14:28;;;;;;;3.63;3.20;;;;;;;;;;5050650;28;20425;-48
2023/07/01 00:16:54;;;;;;;5.17;3.70;;;;;;;;;;5051990;28;20422;-50
2023/07/01 00:19:20;;;;;;;3.43;3.13;;;;;;;;;;5051929;28;20873;-50
2023/07/01 00:21:46;;;;;;;3.60;3.30;;;;;;;;;;5051032;28;20411;-49
2023/07/01 00:24:12;;;;;;;3.77;2.70;;;;;;;;;;5051694;28;20417;-46
2023/07/01 00:26:38;;;;;;;4.10;2.90;;;;;;;;;;5051794;28;20399;-49
2023/07/01 00:29:04;;;;;;;4.93;2.90;;;;;;;;;;5047246;28;20466;-50
2023/07/01 00:31:30;;;;;;;3.33;3.10;;;;;;;;;;5051645;28;20390;-49
2023/07/01 00:33:56;;;;;;;3.10;2.80;;;;;;;;;;5051600;28;20384;-50
2023/07/01 00:36:22;;;;;;;3.80;3.33;;;;;;;;;;5051510;28;20772;-50
2023/07/01 00:38:48;;;;;;;3.10;2.83;;;;;;;;;;5051625;28;20814;-50
2023/07/01 00:41:17;;;;;;;4.67;3.43;;;;;;;;;;5051379;28;20422;-49
2023/07/01 00:43:43;;;;;;;3.37;3.17;;;;;;;;;;5051131;28;20772;-51
2023/07/01 00:46:09;;;;;;;3.87;2.97;;;;;;;;;;5051382;28;20398;-51
2023/07/01 00:48:35;;;;;;;5.63;3.40;;;;;;;;;;5051605;28;20813;-49
2023/07/01 00:51:01;;;;;;;4.10;3.20;;;;;;;;;;5051289;28;20409;-50
2023/07/01 00:53:27;;;;;;;4.23;3.07;;;;;;;;;;5053738;28;20406;-47
2023/07/01 00:55:53;;;;;;;4.03;3.47;;;;;;;;;;5058359;28;20807;-48
2023/07/01 00:58:19;;;;;;;7.60;3.90;;;;;;;;;;5058060;28;20476;-48
2023/07/01 01:00:45;;;;;;;4.10;3.27;;;;;;;;;;5057732;28;20399;-49
2023/07/01 01:03:30;;;;;;;4.10;3.80;;;;;;;;;;5057415;28;20485;-49
2023/07/01 01:06:16;;;;;;;6.50;3.27;;;;;;;;;;5051570;28;20386;-48
2023/07/01 01:08:58;;;;;;;3.50;3.30;;;;;;;;;;5006064;28;20391;-50
2023/07/01 01:11:25;;;;;;;5.10;3.27;;;;;;;;;;5057908;28;20408;-49
2023/07/01 01:13:52;;;;;;;3.40;3.10;;;;;;;;;;5057896;28;20537;-51
2023/07/01 01:16:19;;;;;;;6.13;3.13;;;;;;;;;;5056984;28;20810;-48
2023/07/01 01:18:45;;;;;;;5.80;4.57;;;;;;;;;;5057906;28;20373;-48
2023/07/01 01:21:13;;;;;;;4.00;3.23;;;;;;;;;;5057605;28;20391;-50
2023/07/01 01:23:42;;;;;;;3.57;3.23;;;;;;;;;;5049926;28;20383;-49
2023/07/01 01:26:13;;;;;;;3.67;3.30;;;;;;;;;;5057982;28;20381;-51
2023/07/01 01:28:39;;;;;;;4.43;2.67;;;;;;;;;;5049868;28;20788;-50
2023/07/01 01:31:05;;;;;;;3.67;3.30;;;;;;;;;;5057754;28;20396;-50
2023/07/01 01:33:31;;;;;;;3.80;2.90;;;;;;;;;;5056793;28;20372;-50
2023/07/01 01:36:07;;;;;;;3.40;3.10;;;;;;;;;;5057839;28;20412;-49
2023/07/01 01:38:34;;;;;;;3.10;2.80;;;;;;;;;;5057993;28;20384;-48
2023/07/01 01:41:10;;;;;;;3.63;2.80;;;;;;;;;;5057867;28;20736;-49
2023/07/01 01:43:59;;;;;;;3.63;3.33;;;;;;;;;;5057575;28;20439;-50
2023/07/01 01:46:25;;;;;;;3.30;3.10;;;;;;;;;;5057133;28;20443;-49
2023/07/01 01:48:53;;;;;;;3.27;3.07;;;;;;;;;;5057581;28;20402;-49
2023/07/01 01:51:19;;;;;;;3.17;2.97;;;;;;;;;;5057416;28;20408;-49
2023/07/01 01:53:46;;;;;;;6.50;3.30;;;;;;;;;;5057364;28;20498;-47
2023/07/01 01:56:12;;;;;;;2.80;2.60;;;;;;;;;;5057863;28;20413;-50
2023/07/01 01:58:39;;;;;;;4.50;2.97;;;;;;;;;;5056846;28;20386;-51
2023/07/01 02:01:05;;;;;;;3.70;3.27;;;;;;;;;;5057271;28;20497;-51
2023/07/01 02:03:31;;;;;;;5.13;3.80;;;;;;;;;;5057275;28;20453;-50
2023/07/01 02:05:57;;;;;;;3.97;3.67;;;;;;;;;;5053686;28;20386;-50
2023/07/01 02:08:22;;;;;;;4.87;3.00;;;;;;;;;;5054056;28;20443;-49
2023/07/01 02:10:48;;;;;;;3.30;3.10;;;;;;;;;;5053915;28;20474;-49
2023/07/01 02:13:14;;;;;;;6.10;3.13;;;;;;;;;;5054129;28;20386;-48
2023/07/01 02:15:40;;;;;;;3.20;3.00;;;;;;;;;;5054238;28;20411;-49
2023/07/01 02:18:06;;;;;;;5.13;2.97;;;;;;;;;;5054187;28;20526;-49
2023/07/01 02:20:32;;;;;;;4.60;3.67;;;;;;;;;;5054067;28;20422;-50
2023/07/01 02:22:58;;;;;;;3.57;3.27;;;;;;;;;;5054058;28;20919;-49
2023/07/01 02:25:24;;;;;;;4.13;3.60;;;;;;;;;;5053875;28;20915;-50
2023/07/01 02:27:50;;;;;;;3.83;3.20;;;;;;;;;;5054218;28;20916;-49
2023/07/01 02:30:16;;;;;;;4.27;3.53;;;;;;;;;;5053840;28;20858;-49
2023/07/01 02:32:42;;;;;;;3.50;3.20;;;;;;;;;;5053824;28;20427;-48
2023/07/01 02:35:08;;;;;;;3.63;3.33;;;;;;;;;;5049879;28;20458;-49
2023/07/01 02:37:34;;;;;;;4.10;3.60;;;;;;;;;;5054045;28;20396;-48
2023/07/01 02:40:00;;;;;;;3.57;3.27;;;;;;;;;;5053460;28;20770;-48
2023/07/01 02:42:26;;;;;;;2.80;2.60;;;;;;;;;;5053640;28;20385;-50
2023/07/01 02:44:52;;;;;;;4.23;3.30;;;;;;;;;;5053731;28;20476;-51
2023/07/01 02:47:19;;;;;;;3.40;3.10;;;;;;;;;;5053443;28;20461;-50
2023/07/01 02:49:44;;;;;;;4.57;3.60;;;;;;;;;;5053291;28;20936;-49
2023/07/01 02:52:11;;;;;;;3.40;3.10;;;;;;;;;;5053534;28;20451;-50
2023/07/01 02:54:39;;;;;;;5.40;3.37;;;;;;;;;;5053367;28;20420;-50
2023/07/01 02:57:06;;;;;;;3.80;3.20;;;;;;;;;;5053396;28;20433;-51
2023/07/01 02:59:32;;;;;;;3.50;3.20;;;;;;;;;;5053298;28;20398;-49
2023/07/01 03:01:58;;;;;;;4.20;3.20;;;;;;;;;;5053018;28;20404;-50
2023/07/01 03:04:24;;;;;;;4.30;3.63;;;;;;;;;;5053207;28;20401;-50
2023/07/01 03:06:50;;;;;;;5.80;3.37;;;;;;;;;;5050306;28;20584;-48
2023/07/01 03:09:16;;;;;;;3.47;3.13;;;;;;;;;;5057942;28;20790;-50
2023/07/01 03:11:42;;;;;;;3.53;3.30;;;;;;;;;;5053307;28;20452;-49
2023/07/01 03:14:08;;;;;;;3.10;2.90;;;;;;;;;;5052966;28;20418;-49
2023/07/01 03:16:36;;;;;;;3.40;2.77;;;;;;;;;;5052865;28;20424;-49
2023/07/01 03:19:05;;;;;;;3.57;3.30;;;;;;;;;;5048103;28;20779;-49
2023/07/01 03:21:31;;;;;;;3.63;2.97;;;;;;;;;;5052545;28;20417;-50
2023/07/01 03:23:57;;;;;;;2.70;2.50;;;;;;;;;;5052864;28;20471;-50
2023/07/01 03:26:23;;;;;;;3.70;3.00;;;;;;;;;;5056954;28;20407;-49
2023/07/01 03:28:49;;;;;;;2.83;2.40;;;;;;;;;;5043403;28;20456;-51
2023/07/01 03:31:16;;;;;;;3.30;3.00;;;;;;;;;;5052641;28;20392;-49
2023/07/01 03:33:42;;;;;;;2.77;2.57;;;;;;;;;;5052613;28;20397;-49
2023/07/01 03:36:09;;;;;;;7.07;3.50;;;;;;;;;;5052572;28;20388;-49
2023/07/01 03:38:35;;;;;;;2.93;2.73;;;;;;;;;;5052785;28;20505;-47
2023/07/01 03:41:01;;;;;;;3.20;3.00;;;;;;;;;;5052384;28;20912;-49
2023/07/01 03:43:28;;;;;;;2.97;2.77;;;;;;;;;;5052415;28;20392;-50
2023/07/01 03:45:54;;;;;;;7.97;3.10;;;;;;;;;;5052442;28;20448;-50
2023/07/01 03:48:20;;;;;;;5.50;2.80;;;;;;;;;;5052283;28;20411;-50
2023/07/01 03:50:46;;;;;;;9.00;3.50;;;;;;;;;;5045062;28;20799;-50
2023/07/01 03:53:12;;;;;;;5.27;2.80;;;;;;;;;;5052277;28;20456;-48
2023/07/01 03:55:38;;;;;;;3.37;3.07;;;;;;;;;;5052240;28;20381;-51
2023/07/01 03:58:04;;;;;;;3.10;2.80;;;;;;;;;;5052072;28;20431;-49
2023/07/01 04:00:30;;;;;;;3.30;3.00;;;;;;;;;;5051958;28;20389;-51
2023/07/01 04:03:05;;;;;;;3.30;2.83;;;;;;;;;;5060395;28;20423;-50
2023/07/01 04:05:34;;;;;;;2.93;2.60;;;;;;;;;;5052103;28;20497;-49
2023/07/01 04:08:00;;;;;;;4.20;2.87;;;;;;;;;;5051970;28;20426;-49
2023/07/01 04:10:26;;;;;;;3.00;2.70;;;;;;;;;;5051788;28;20465;-50
2023/07/01 04:12:52;;;;;;;4.77;2.70;;;;;;;;;;5052044;28;20376;-49
2023/07/01 04:15:17;;;;;;;2.97;2.77;;;;;;;;;;5051747;28;20481;-49
2023/07/01 04:17:48;;;;;;;2.90;2.70;;;;;;;;;;5051608;28;20504;-49
2023/07/01 04:20:14;;;;;;;5.10;4.33;;;;;;;;;;5051585;28;20421;-48
2023/07/01 04:22:41;;;;;;;3.33;3.03;;;;;;;;;;5051939;28;20500;-49
2023/07/01 04:25:08;;;;;;;3.53;3.20;;;;;;;;;;5051744;28;20799;-50
2023/07/01 04:27:34;;;;;;;9.33;3.20;;;;;;;;;;5051430;28;20928;-49
2023/07/01 04:30:00;;;;;;;4.30;3.13;;;;;;;;;;5046226;28;20451;-47
2023/07/01 04:32:28;;;;;;;5.83;2.87;;;;;;;;;;5051554;28;20510;-51
2023/07/01 04:34:54;;;;;;;5.83;3.17;;;;;;;;;;5051596;28;20414;-50
2023/07/01 04:37:20;;;;;;;3.63;2.60;;;;;;;;;;5051540;28;20423;-49
2023/07/01 04:39:46;;;;;;;3.50;3.07;;;;;;;;;;5051354;28;20412;-49
2023/07/01 04:42:12;;;;;;;4.97;3.27;;;;;;;;;;5042435;28;20408;-51
2023/07/01 04:44:38;;;;;;;5.43;3.30;;;;;;;;;;5051322;28;20404;-49
2023/07/01 04:47:04;;;;;;;3.30;2.80;;;;;;;;;;5051637;28;20542;-48
2023/07/01 04:49:30;;;;;;;4.00;2.70;;;;;;;;;;5040887;28;20485;-49
2023/07/01 04:51:57;;;;;;;4.33;3.13;;;;;;;;;;5051432;28;20407;-49
2023/07/01 04:54:23;;;;;;;3.33;3.00;;;;;;;;;;5051353;28;20478;-50
2023/07/01 04:56:49;;;;;;;4.20;3.10;;;;;;;;;;5051604;28;20868;-49
2023/07/01 04:59:15;;;;;;;4.40;3.17;;;;;;;;;;5051229;28;20785;-50
2023/07/01 05:01:41;;;;;;;3.23;2.67;;;;;;;;;;5051036;28;20497;-50
2023/07/01 05:04:07;;;;;;;3.20;2.90;;;;;;;;;;5051297;28;20887;-49
2023/07/01 05:06:33;;;;;;;9.23;2.90;;;;;;;;;;5051740;28;20450;-50
2023/07/01 05:08:59;;;;;;;6.03;3.70;;;;;;;;;;5051148;28;20448;-48
2023/07/01 05:11:27;;;;;;;3.83;2.93;;;;;;;;;;5051062;28;20405;-50
2023/07/01 05:13:53;;;;;;;4.87;3.40;;;;;;;;;;5050963;28;20402;-48
2023/07/01 05:16:19;;;;;;;5.93;3.37;;;;;;;;;;5050980;28;20472;-48
2023/07/01 05:18:45;;;;;;;4.27;3.00;;;;;;;;;;5051238;28;20374;-50
2023/07/01 05:21:11;;;;;;;3.20;2.87;;;;;;;;;;5050998;28;20452;-50
2023/07/01 05:23:37;;;;;;;4.47;3.37;;;;;;;;;;5043415;28;20786;-50
2023/07/01 05:26:03;;;;;;;12.03;3.70;;;;;;;;;;5051207;28;20483;-50
2023/07/01 05:28:29;;;;;;;6.10;3.27;;;;;;;;;;5050891;28;20424;-49
2023/07/01 05:30:55;;;;;;;5.97;3.30;;;;;;;;;;5050892;28;20555;-50
2023/07/01 05:33:21;;;;;;;3.47;3.20;;;;;;;;;;5051153;28;20417;-48
2023/07/01 05:35:47;;;;;;;5.17;3.50;;;;;;;;;;5051005;28;20418;-50
2023/07/01 05:38:13;;;;;;;4.97;2.90;;;;;;;;;;5050972;28;20431;-48
2023/07/01 05:40:40;;;;;;;4.93;3.23;;;;;;;;;;5052618;28;20408;-48
2023/07/01 05:43:06;;;;;;;3.70;3.37;;;;;;;;;;5054738;28;20411;-49
2023/07/01 05:45:31;;;;;;;7.17;3.40;;;;;;;;;;5051971;28;20427;-49
2023/07/01 05:47:58;;;;;;;4.20;3.10;;;;;;;;;;5049323;28;20822;-47
2023/07/01 05:50:24;;;;;;;4.13;3.10;;;;;;;;;;5058840;28;20994;-47
2023/07/01 05:52:50;;;;;;;2.93;2.73;;;;;;;;;;5054548;28;20416;-50
2023/07/01 05:55:16;;;;;;;3.60;3.40;;;;;;;;;;5054509;28;20718;-50
2023/07/01 05:57:42;;;;;;;5.67;3.47;;;;;;;;;;5054558;28;20433;-50
2023/07/01 06:00:09;;;;;;;4.13;3.20;;;;;;;;;;5054460;28;20816;-51
2023/07/01 06:02:35;;;;;;;5.83;3.37;;;;;;;;;;5054515;28;20379;-48
2023/07/01 06:05:01;;;;;;;4.77;3.17;;;;;;;;;;5058948;28;20444;-47
2023/07/01 06:07:27;;;;;;;3.70;2.93;;;;;;;;;;5055496;28;20430;-50
2023/07/01 06:09:53;;;;;;;4.00;3.70;;;;;;;;;;5053977;28;20575;-49
2023/07/01 06:12:19;;;;;;;3.50;3.20;;;;;;;;;;5053957;28;20477;-48
2023/07/01 06:14:45;;;;;;;3.33;3.03;;;;;;;;;;5054379;28;20493;-48
2023/07/01 06:17:11;;;;;;;5.53;2.90;;;;;;;;;;5054125;28;21032;-51
2023/07/01 06:19:38;;;;;;;5.73;3.60;;;;;;;;;;5036223;28;20390;-48
2023/07/01 06:22:04;;;;;;;4.23;3.30;;;;;;;;;;5054575;28;20463;-50
2023/07/01 06:24:30;;;;;;;3.83;3.23;;;;;;;;;;5054002;28;20428;-50
2023/07/01 06:26:56;;;;;;;3.50;2.90;;;;;;;;;;5053706;28;20419;-51
2023/07/01 06:29:21;;;;;;;5.67;3.00;;;;;;;;;;5037716;28;20463;-50
2023/07/01 06:31:47;;;;;;;5.97;3.10;;;;;;;;;;5053813;28;20378;-49
2023/07/01 06:34:17;;;;;;;3.80;3.03;;;;;;;;;;5053848;28;20420;-50
2023/07/01 06:36:44;;;;;;;8.10;3.33;;;;;;;;;;5053826;28;20426;-50
2023/07/01 06:39:10;;;;;;;5.03;3.50;;;;;;;;;;5053882;28;20487;-50
2023/07/01 06:41:36;;;;;;;3.87;3.13;;;;;;;;;;5053267;28;20418;-49
2023/07/01 06:44:02;;;;;;;3.40;3.00;;;;;;;;;;5053836;28;20408;-49
2023/07/01 06:46:28;;;;;;;3.47;3.20;;;;;;;;;;5053463;28;20431;-49
2023/07/01 06:48:54;;;;;;;3.90;3.50;;;;;;;;;;5053507;28;20785;-50
2023/07/01 06:51:20;;;;;;;3.30;3.00;;;;;;;;;;5052733;28;20497;-51
2023/07/01 06:53:46;;;;;;;3.83;3.50;;;;;;;;;;5053360;28;20403;-49
2023/07/01 06:56:12;;;;;;;5.20;3.60;;;;;;;;;;5053279;28;20414;-50
2023/07/01 06:58:40;;;;;;;4.70;3.70;;;;;;;;;;5044986;28;20403;-49
2023/07/01 07:01:06;;;;;;;4.70;3.10;;;;;;;;;;5052702;28;20505;-50
2023/07/01 07:03:33;;;;;;;4.60;3.47;;;;;;;;;;5052808;28;20479;-49
2023/07/01 07:05:59;;;;;;;4.33;3.57;;;;;;;;;;5052861;28;20400;-48
2023/07/01 07:08:25;;;;;;;3.33;3.00;;;;;;;;;;5052479;28;21156;-48
2023/07/01 07:10:51;;;;;;;4.30;3.60;;;;;;;;;;5057769;28;20465;-50
2023/07/01 07:13:20;;;;;;;5.10;4.17;;;;;;;;;;5052488;28;20810;-50
2023/07/01 07:15:46;;;;;;;3.57;3.33;;;;;;;;;;5051462;28;20525;-46
2023/07/01 07:18:13;;;;;;;6.63;3.83;;;;;;;;;;5051963;28;20404;-49
2023/07/01 07:20:39;;;;;;;7.97;3.70;;;;;;;;;;5049597;28;20507;-49
2023/07/01 07:23:06;;;;;;;3.40;3.10;;;;;;;;;;5051320;28;20425;-48
2023/07/01 07:25:35;;;;;;;6.37;4.00;;;;;;;;;;5052369;28;20909;-49
2023/07/01 07:28:03;;;;;;;3.77;3.37;;;;;;;;;;5052991;28;20410;-49
2023/07/01 07:30:29;;;;;;;4.20;3.47;;;;;;;;;;5052413;28;20435;-49
2023/07/01 07:32:55;;;;;;;5.53;4.07;;;;;;;;;;5052730;28;20410;-47
2023/07/01 07:35:21;;;;;;;6.10;3.80;;;;;;;;;;5052566;28;20383;-50
2023/07/01 07:37:47;;;;;;;4.33;3.93;;;;;;;;;;5052506;28;20419;-50
2023/07/01 07:40:13;;;;;;;6.80;3.57;;;;;;;;;;5052308;28;20417;-50
2023/07/01 07:42:41;;;;;;;5.03;3.87;;;;;;;;;;5052519;28;20391;-50
2023/07/01 07:45:07;;;;;;;3.47;3.13;;;;;;;;;;5052450;28;20920;-49
2023/07/01 07:47:33;;;;;;;6.33;3.27;;;;;;;;;;5052330;28;20516;-49
2023/07/01 07:50:01;;;;;;;5.33;3.33;;;;;;;;;;5052122;28;20552;-50
2023/07/01 07:52:27;;;;;;;3.83;3.53;;;;;;;;;;5052687;28;20887;-49
2023/07/01 07:54:53;;;;;;;6.27;3.63;;;;;;;;;;5052067;28;20470;-49
2023/07/01 07:57:19;;;;;;;3.90;3.33;;;;;;;;;;5052112;28;20409;-48
2023/07/01 07:59:46;;;;;;;4.27;3.40;;;;;;;;;;5051985;28;20425;-49
2023/07/01 08:02:12;;;;;;;3.53;3.10;;;;;;;;;;5051989;28;20471;-50
2023/07/01 08:04:38;;;;;;;3.33;3.03;;;;;;;;;;5051579;28;20389;-50
2023/07/01 08:07:04;;;;;;;5.23;3.20;;;;;;;;;;5051837;28;20543;-49
2023/07/01 08:09:31;;;;;;;5.10;3.57;;;;;;;;;;5052000;28;20457;-49
2023/07/01 08:11:58;;;;;;;6.83;2.90;;;;;;;;;;5052081;28;20377;-50
2023/07/01 08:14:25;;;;;;;3.17;2.97;;;;;;;;;;5051889;28;20390;-50
2023/07/01 08:16:51;;;;;;;7.43;3.40;;;;;;;;;;5051943;28;20460;-50
2023/07/01 08:19:17;;;;;;;3.37;3.07;;;;;;;;;;5051762;28;20504;-49
2023/07/01 08:21:43;;;;;;;3.17;2.87;;;;;;;;;;5051659;28;20418;-50
2023/07/01 08:24:09;;;;;;;3.70;2.90;;;;;;;;;;5051760;28;20392;-48
2023/07/01 08:26:36;;;;;;;4.30;3.13;;;;;;;;;;5051631;28;20454;-48
2023/07/01 08:29:02;;;;;;;3.33;2.73;;;;;;;;;;5051697;28;20425;-50
2023/07/01 08:31:31;;;;;;;3.87;2.70;;;;;;;;;;5051652;28;20380;-50
2023/07/01 08:33:57;;;;;;;3.00;2.80;;;;;;;;;;5051537;28;20873;-51
2023/07/01 08:36:23;;;;;;;4.37;3.33;;;;;;;;;;5051548;28;20414;-50
2023/07/01 08:38:49;;;;;;;3.47;3.17;;;;;;;;;;5051685;28;20886;-50
2023/07/01 08:41:16;;;;;;;3.40;2.77;;;;;;;;;;5051382;28;20386;-50
2023/07/01 08:43:43;;;;;;;2.87;2.67;;;;;;;;;;5051566;28;20682;-50
2023/07/01 08:46:12;;;;;;;3.33;2.70;;;;;;;;;;5051575;28;20384;-50
2023/07/01 08:48:38;;;;;;;5.10;3.20;;;;;;;;;;5043232;28;20396;-51
2023/07/01 08:51:11;;;;;;;2.80;2.60;;;;;;;;;;5051152;28;20790;-50
2023/07/01 08:53:37;;;;;;;3.40;3.10;;;;;;;;;;5051360;28;20381;-50
2023/07/01 08:56:04;;;;;;;3.10;2.67;;;;;;;;;;5051376;28;20385;-48
2023/07/01 08:58:30;;;;;;;2.67;2.47;;;;;;;;;;5051382;28;20412;-50
2023/07/01 09:00:56;;;;;;;2.60;2.40;;;;;;;;;;5050967;28;20887;-50
2023/07/01 09:03:23;;;;;;;2.97;2.77;;;;;;;;;;5051261;28;20897;-50
2023/07/01 09:05:49;;;;;;;2.90;2.70;;;;;;;;;;5051411;28;20776;-49
2023/07/01 09:08:15;;;;;;;3.90;3.10;;;;;;;;;;5051257;28;20450;-50
2023/07/01 09:10:41;;;;;;;3.23;3.00;;;;;;;;;;5051092;28;20449;-50
2023/07/01 09:13:13;;;;;;;3.53;3.23;;;;;;;;;;5051366;28;20871;-50
2023/07/01 09:15:44;;;;;;;3.20;3.00;;;;;;;;;;5054000;28;20425;-50
2023/07/01 09:18:20;;;;;;;2.73;2.53;;;;;;;;;;5055269;28;20439;-50
2023/07/01 09:20:46;;;;;;;4.70;3.20;;;;;;;;;;5050587;28;20416;-51
2023/07/01 09:23:24;;;;;;;3.30;3.00;;;;;;;;;;5055176;28;20388;-50
2023/07/01 09:25:50;;;;;;;4.80;2.80;;;;;;;;;;5048684;28;20385;-49
2023/07/01 09:28:30;;;;;;;3.20;2.90;;;;;;;;;;5054900;28;20967;-50
2023/07/01 09:30:59;;;;;;;2.70;2.60;;;;;;;;;;5055057;28;20437;-50
2023/07/01 09:33:25;;;;;;;3.20;2.90;;;;;;;;;;5054673;28;20911;-50
2023/07/01 09:35:57;;;;;;;3.20;3.00;;;;;;;;;;5055011;28;20409;-50
2023/07/01 09:38:26;;;;;;;3.23;3.03;;;;;;;;;;5054914;28;20905;-49
2023/07/01 09:40:52;;;;;;;3.33;3.03;;;;;;;;;;5054693;28;20923;-50
2023/07/01 09:43:19;;;;;;;3.37;3.10;;;;;;;;;;5053619;28;20418;-50
2023/07/01 09:45:54;;;;;;;3.40;3.20;;;;;;;;;;5054747;28;20449;-50
2023/07/01 09:48:20;;;;;;;3.17;2.97;;;;;;;;;;5053147;28;20485;-50
2023/07/01 09:50:47;;;;;;;3.23;3.03;;;;;;;;;;5059943;28;20511;-50
2023/07/01 09:53:20;;;;;;;3.83;3.50;;;;;;;;;;5050104;28;20455;-50
2023/07/01 09:55:46;;;;;;;4.20;3.50;;;;;;;;;;5053441;28;20412;-49
2023/07/01 09:58:13;;;;;;;4.90;2.63;;;;;;;;;;5054203;28;20472;-48
2023/07/01 10:00:39;;;;;;;2.87;2.77;;;;;;;;;;5053822;28;20931;-49
2023/07/01 10:03:07;;;;;;;3.00;2.67;;;;;;;;;;5053589;28;20400;-50
2023/07/01 10:05:34;;;;;;;2.93;2.73;;;;;;;;;;5054225;28;20507;-48
2023/07/01 10:08:00;;;;;;;2.53;2.43;;;;;;;;;;5054204;28;20507;-50
2023/07/01 10:10:26;;;;;;;2.43;2.23;;;;;;;;;;5054081;28;20466;-51
2023/07/01 10:12:53;;;;;;;2.53;2.43;;;;;;;;;;5054440;28;20392;-51
2023/07/01 10:15:21;;;;;;;2.93;2.73;;;;;;;;;;5054354;28;20735;-51
2023/07/01 10:17:48;;;;;;;2.90;2.70;;;;;;;;;;5054162;28;20403;-50
2023/07/01 10:20:24;;;;;;;3.30;3.00;;;;;;;;;;5054126;28;20383;-50
2023/07/01 10:22:56;;;;;;;2.90;2.73;;;;;;;;;;5053982;28;20753;-50
2023/07/01 10:25:30;;;;;;;3.20;2.90;;;;;;;;;;5053456;28;20464;-49
2023/07/01 10:27:59;;;;;;;2.77;2.67;;;;;;;;;;5053738;28;20991;-49
2023/07/01 10:30:43;;;;;;;2.63;2.53;;;;;;;;;;5053687;28;20454;-51
2023/07/01 10:33:28;;;;;;;2.43;2.33;;;;;;;;;;5053844;28;20886;-47
2023/07/01 10:36:03;;;;;;;2.90;2.70;;;;;;;;;;5047971;28;20519;-50
2023/07/01 10:38:32;;;;;;;3.07;2.77;;;;;;;;;;5053297;28;20516;-50
2023/07/01 10:40:59;;;;;;;2.67;2.53;;;;;;;;;;5054052;28;20905;-50
2023/07/01 10:43:34;;;;;;;2.20;2.10;;;;;;;;;;5052622;28;20381;-50
2023/07/01 10:46:10;;;;;;;2.20;2.10;;;;;;;;;;5053151;28;20378;-51
2023/07/01 10:49:03;;;;;;;2.50;2.40;;;;;;;;;;5053418;28;20404;-49
2023/07/01 10:51:31;;;;;;;2.30;2.20;;;;;;;;;;5047318;28;20430;-51
2023/07/01 10:54:02;;;;;;;2.63;2.43;;;;;;;;;;5053479;28;20418;-51
2023/07/01 10:56:28;;;;;;;2.47;2.37;;;;;;;;;;5053369;28;20430;-50
2023/07/01 10:59:13;;;;;;;2.67;2.37;;;;;;;;;;5053529;28;20410;-49
2023/07/01 11:01:43;;;;;;;2.40;2.30;;;;;;;;;;5049016;28;20414;-50
2023/07/01 11:04:09;;;;;;;2.00;1.90;;;;;;;;;;5053172;28;20426;-49
2023/07/01 11:06:45;;;;;;;2.30;2.10;;;;;;;;;;5053611;28;20447;-50
2023/07/01 11:09:11;;;;;;;2.20;2.10;;;;;;;;;;5053210;28;20413;-48
2023/07/01 11:11:37;;;;;;;2.03;1.93;;;;;;;;;;5052852;28;20410;-48
2023/07/01 11:14:06;;;;;;;2.03;1.93;;;;;;;;;;5053087;28;20485;-48
2023/07/01 11:16:33;;;;;;;1.73;1.63;;;;;;;;;;5052865;28;20428;-48
2023/07/01 11:19:00;;;;;;;1.70;1.60;;;;;;;;;;5053062;28;20408;-50
2023/07/01 11:21:28;;;;;;;2.00;1.90;;;;;;;;;;5052690;28;20418;-50
2023/07/01 11:24:11;;;;;;;1.90;1.80;;;;;;;;;;5053044;28;20404;-50
2023/07/01 11:26:38;;;;;;;1.90;1.80;;;;;;;;;;5052903;28;20463;-50
2023/07/01 11:29:18;;;;;;;1.97;1.87;;;;;;;;;;5052741;28;20419;-49
2023/07/01 11:31:45;;;;;;;1.80;1.70;;;;;;;;;;5045578;28;20417;-50
2023/07/01 11:34:14;;;;;;;2.90;1.70;;;;;;;;;;5052736;28;20418;-48
2023/07/01 11:36:43;;;;;;;1.70;1.60;;;;;;;;;;5044785;28;20944;-50
2023/07/01 11:39:10;;;;;;;1.70;1.60;;;;;;;;;;5052657;28;20489;-49
2023/07/01 11:41:37;;;;;;;2.00;1.67;;;;;;;;;;5052347;28;20420;-50
2023/07/01 11:44:04;;;;;;;1.80;1.70;;;;;;;;;;5052666;28;20443;-48
2023/07/01 11:46:32;;;;;;;1.80;1.70;;;;;;;;;;5052479;28;20475;-49
2023/07/01 11:48:58;;;;;;;1.60;1.50;;;;;;;;;;5051970;28;20748;-49
2023/07/01 11:51:44;;;;;;;2.07;1.97;;;;;;;;;;5053308;28;20511;-48
2023/07/01 11:54:10;;;;;;;1.60;1.50;;;;;;;;;;5051849;28;20947;-49
2023/07/01 11:56:36;;;;;;;1.80;1.70;;;;;;;;;;5052118;28;20498;-50
2023/07/01 11:59:02;;;;;;;1.50;1.40;;;;;;;;;;5052434;28;20745;-50
2023/07/01 12:01:29;;;;;;;1.27;1.27;;;;;;;;;;5052204;28;20403;-50
2023/07/01 12:03:55;;;;;;;1.93;1.83;;;;;;;;;;5052121;28;20440;-49
2023/07/01 12:06:24;;;;;;;1.50;1.40;;;;;;;;;;5051857;28;20409;-48
2023/07/01 12:08:54;;;;;;;1.50;1.40;;;;;;;;;;5052255;28;20496;-50
2023/07/01 12:11:21;;;;;;;1.50;1.40;;;;;;;;;;5051787;28;20470;-50
2023/07/01 12:13:47;;;;;;;1.50;1.40;;;;;;;;;;5051889;28;20417;-51
2023/07/01 12:16:13;;;;;;;1.73;1.50;;;;;;;;;;5050848;28;20494;-50
2023/07/01 12:18:39;;;;;;;2.40;1.37;;;;;;;;;;5048062;28;20499;-51
2023/07/01 12:21:05;;;;;;;1.77;1.67;;;;;;;;;;5032681;28;20449;-50
2023/07/01 12:23:40;;;;;;;1.67;1.57;;;;;;;;;;5051863;28;20411;-49
2023/07/01 12:26:06;;;;;;;1.57;1.47;;;;;;;;;;5044963;28;20433;-50
2023/07/01 12:28:32;;;;;;;1.77;1.67;;;;;;;;;;5046478;28;20420;-50
2023/07/01 12:30:58;;;;;;;1.80;1.70;;;;;;;;;;5045159;28;20981;-50
2023/07/01 12:33:24;;;;;;;1.70;1.60;;;;;;;;;;5043586;28;20430;-46
2023/07/01 12:35:50;;;;;;;1.90;1.70;;;;;;;;;;5041054;28;20885;-50
2023/07/01 12:38:16;;;;;;;2.00;1.90;;;;;;;;;;5043266;28;20433;-50
2023/07/01 12:40:42;;;;;;;2.30;2.20;;;;;;;;;;5041908;28;20404;-50
2023/07/01 12:43:08;;;;;;;2.27;2.17;;;;;;;;;;5038306;28;20414;-50
2023/07/01 12:45:34;;;;;;;2.10;2.00;;;;;;;;;;5045707;28;20416;-49
2023/07/01 12:48:01;;;;;;;2.20;2.10;;;;;;;;;;5051068;28;20439;-48
2023/07/01 12:50:27;;;;;;;2.60;2.40;;;;;;;;;;5049693;28;20607;-51
2023/07/01 12:52:53;;;;;;;2.60;2.40;;;;;;;;;;5050485;28;20502;-50
2023/07/01 12:55:20;;;;;;;2.40;2.30;;;;;;;;;;5041825;28;20407;-51
2023/07/01 12:57:45;;;;;;;2.70;2.50;;;;;;;;;;5042853;28;21081;-49
2023/07/01 13:00:12;;;;;;;2.80;2.30;;;;;;;;;;5040687;28;20438;-48
2023/07/01 13:02:38;;;;;;;3.10;2.90;;;;;;;;;;5046277;28;20428;-48
2023/07/01 13:05:05;;;;;;;3.10;2.80;;;;;;;;;;5046487;28;20419;-50
2023/07/01 13:07:32;;;;;;;3.00;2.83;;;;;;;;;;5048760;28;20536;-50
2023/07/01 13:09:58;;;;;;;2.97;2.87;;;;;;;;;;5053123;28;20470;-50
2023/07/01 13:12:25;;;;;;;2.70;2.50;;;;;;;;;;5050429;28;20896;-49
2023/07/01 13:14:53;;;;;;;2.90;2.70;;;;;;;;;;5054654;28;20394;-50
2023/07/01 13:17:40;;;;;;;2.80;2.70;;;;;;;;;;5050743;28;20443;-48
2023/07/01 13:20:07;;;;;;;2.73;2.63;;;;;;;;;;5050128;28;20507;-50
2023/07/01 13:22:33;;;;;;;3.20;3.00;;;;;;;;;;5040802;28;20913;-49
2023/07/01 13:25:00;;;;;;;2.70;2.50;;;;;;;;;;5049860;28;20971;-49
2023/07/01 13:27:26;;;;;;;2.70;2.60;;;;;;;;;;5049687;28;20784;-50
2023/07/01 13:29:52;;;;;;;3.13;2.93;;;;;;;;;;5049278;28;20471;-49
2023/07/01 13:32:21;;;;;;;2.73;2.57;;;;;;;;;;5049421;28;20762;-49
2023/07/01 13:34:47;;;;;;;2.40;2.30;;;;;;;;;;5049355;28;20395;-50
2023/07/01 13:37:13;;;;;;;2.70;2.40;;;;;;;;;;5049701;28;20438;-50
2023/07/01 13:39:43;;;;;;;2.40;2.23;;;;;;;;;;5049816;28;20452;-49
2023/07/01 13:42:10;;;;;;;2.17;2.07;;;;;;;;;;5050793;28;20415;-50
2023/07/01 13:44:38;;;;;;;2.43;2.33;;;;;;;;;;5050848;28;20417;-50
2023/07/01 13:47:05;;;;;;;2.47;2.37;;;;;;;;;;5050933;28;20468;-50
2023/07/01 13:49:31;;;;;;;2.60;2.40;;;;;;;;;;5050821;28;20513;-50
2023/07/01 13:51:57;;;;;;;2.50;2.40;;;;;;;;;;5051207;28;20417;-49
2023/07/01 13:54:25;;;;;;;2.33;2.23;;;;;;;;;;5050916;28;20406;-49
2023/07/01 13:56:51;;;;;;;2.30;2.20;;;;;;;;;;5050801;28;20429;-50
2023/07/01 13:59:18;;;;;;;6.40;1.90;;;;;;;;;;5050887;28;20403;-50
2023/07/01 14:02:01;;;;;;;2.00;1.90;;;;;;;;;;5052127;28;20432;-51
2023/07/01 14:04:28;;;;;;;2.50;2.40;;;;;;;;;;5054496;28;20448;-50
2023/07/01 14:06:54;;;;;;;3.10;2.90;;;;;;;;;;5054082;28;20449;-51
2023/07/01 14:09:24;;;;;;;3.20;3.00;;;;;;;;;;5053234;28;20450;-51
2023/07/01 14:11:50;;;;;;;2.60;2.40;;;;;;;;;;5052968;28;20409;-51
2023/07/01 14:14:19;;;;;;;2.20;2.00;;;;;;;;;;5054205;28;20412;-50
2023/07/01 14:16:46;;;;;;;2.03;1.93;;;;;;;;;;5053531;28;20428;-49
2023/07/01 14:19:14;;;;;;;2.33;2.20;;;;;;;;;;5049933;28;20417;-50
2023/07/01 14:21:40;;;;;;;2.20;2.00;;;;;;;;;;5053923;28;20401;-49
2023/07/01 14:24:10;;;;;;;2.17;2.07;;;;;;;;;;5054056;28;20417;-51
2023/07/01 14:26:41;;;;;;;2.50;1.80;;;;;;;;;;5054231;28;20849;-51
2023/07/01 14:29:07;;;;;;;2.10;1.80;;;;;;;;;;5045998;28;20424;-50
2023/07/01 14:31:33;;;;;;;2.00;1.90;;;;;;;;;;5053798;28;20424;-51
2023/07/01 14:34:00;;;;;;;2.37;2.27;;;;;;;;;;5053805;28;20436;-50
2023/07/01 14:36:31;;;;;;;2.33;2.07;;;;;;;;;;5053562;28;20414;-50
2023/07/01 14:38:58;;;;;;;2.60;2.50;;;;;;;;;;5054109;28;20775;-50
2023/07/01 14:41:26;;;;;;;2.00;1.80;;;;;;;;;;5053558;28;20414;-50
2023/07/01 14:43:56;;;;;;;2.63;1.73;;;;;;;;;;5053627;28;20997;-49
2023/07/01 14:46:23;;;;;;;2.13;1.87;;;;;;;;;;5053607;28;20440;-50